Time;durP1;ratioP1;P1;durP2;ratioP2;P2;SDS_P1;SDS_P2;PMS_P1;PMS_P2;Temp;Humidity;BMP_temperature;BMP_pressure;BME280_temperature;BME280_humidity;BME280_pressure;Samples;Min_cycle;Max_cycle;Signal;HPM_P1;HPM_P2
2022/09/23 00:01:06;;;;;;;7.05;4.53;;;;;;;9.44;88.29;100741.03;4893636;29;20079;-70
2022/09/23 00:03:34;;;;;;;6.80;4.18;;;;;;;9.34;87.49;100709.72;4891200;29;20633;-75
2022/09/23 00:06:03;;;;;;;4.88;4.30;;;;;;;9.44;87.80;100727.00;4891105;29;20060;-71
2022/09/23 00:08:30;;;;;;;4.57;4.05;;;;;;;9.50;87.69;100738.19;4894057;29;20083;-70
2022/09/23 00:11:04;;;;;;;7.05;4.88;;;;;;;9.52;87.77;100737.28;4884818;29;20096;-70
2022/09/23 00:13:31;;;;;;;7.75;4.82;;;;;;;9.45;87.57;100736.63;4884131;29;20599;-69
2022/09/23 00:16:05;;;;;;;5.80;4.63;;;;;;;9.35;88.25;100745.81;4889060;29;20142;-71
2022/09/23 00:18:32;;;;;;;6.43;5.10;;;;;;;9.25;89.13;100740.00;4888109;29;20095;-71
2022/09/23 00:21:08;;;;;;;6.28;4.60;;;;;;;9.14;89.58;100734.22;4894635;29;20142;-73
2022/09/23 00:23:36;;;;;;;6.82;4.60;;;;;;;9.11;90.02;100734.38;4888504;29;20056;-71
2022/09/23 00:26:05;;;;;;;6.93;5.03;;;;;;;9.09;90.92;100738.84;4881581;29;20053;-70
2022/09/23 00:28:32;;;;;;;5.82;5.05;;;;;;;9.06;90.92;100738.94;4893724;29;20083;-70
2022/09/23 00:31:04;;;;;;;7.72;4.78;;;;;;;8.98;91.50;100727.75;4886418;29;20448;-77
2022/09/23 00:33:30;;;;;;;6.40;4.90;;;;;;;8.97;91.65;100739.28;4887066;29;20515;-73
2022/09/23 00:35:59;;;;;;;8.55;5.20;;;;;;;8.90;91.55;100737.75;4890168;29;20140;-73
2022/09/23 00:38:25;;;;;;;7.95;4.75;;;;;;;8.86;91.98;100728.19;4891637;29;20135;-72
2022/09/23 00:40:52;;;;;;;9.50;5.05;;;;;;;8.82;92.62;100734.50;4892031;29;20396;-72
2022/09/23 00:43:19;;;;;;;8.10;5.45;;;;;;;8.59;92.89;100707.13;4890807;29;20064;-73
2022/09/23 00:45:49;;;;;;;6.97;4.85;;;;;;;8.70;93.31;100736.63;4889113;29;20131;-74
2022/09/23 00:48:19;;;;;;;5.22;4.72;;;;;;;8.59;93.64;100722.94;4880073;29;20049;-76
2022/09/23 00:50:53;;;;;;;5.75;5.13;;;;;;;8.59;94.30;100730.00;4884551;29;20084;-72
2022/09/23 00:53:22;;;;;;;5.63;4.80;;;;;;;8.49;94.33;100721.53;4881195;29;20132;-72
2022/09/23 00:55:54;;;;;;;10.23;5.47;;;;;;;8.50;94.78;100727.69;4886744;29;20053;-70
2022/09/23 00:58:30;;;;;;;9.38;5.80;;;;;;;8.39;95.35;100720.09;4887746;29;20044;-68
2022/09/23 01:01:01;;;;;;;6.57;5.18;;;;;;;8.39;96.01;100718.31;4893085;29;20412;-73
2022/09/23 01:03:28;;;;;;;6.20;5.18;;;;;;;8.40;96.08;100716.56;4881709;29;20061;-71
2022/09/23 01:05:56;;;;;;;6.25;5.10;;;;;;;8.39;96.58;100720.09;4885139;29;20414;-71
2022/09/23 01:08:25;;;;;;;6.82;5.22;;;;;;;8.43;96.98;100712.03;4887239;29;20048;-71
2022/09/23 01:11:35;;;;;;;6.53;5.05;;;;;;;8.46;96.72;100711.09;4883759;29;20148;-71
2022/09/23 01:14:35;;;;;;;9.73;5.50;;;;;;;8.33;96.55;100678.09;4887714;29;20459;-71
2022/09/23 01:17:10;;;;;;;7.78;5.35;;;;;;;8.47;96.36;100707.53;4890619;29;20140;-70
2022/09/23 01:20:07;;;;;;;9.15;5.80;;;;;;;8.40;97.05;100701.59;4887710;29;20060;-72
2022/09/23 01:23:00;;;;;;;8.80;5.35;;;;;;;8.39;96.96;100705.13;4884223;29;20375;-70
2022/09/23 01:25:30;;;;;;;7.10;4.93;;;;;;;8.29;97.48;100681.72;4886430;29;20423;-70
2022/09/23 01:28:13;;;;;;;12.20;5.20;;;;;;;8.50;97.93;100702.13;4888057;29;20061;-72
2022/09/23 01:30:48;;;;;;;5.68;4.90;;;;;;;8.57;96.98;100694.88;4885899;29;20713;-73
2022/09/23 01:33:34;;;;;;;6.97;5.50;;;;;;;8.41;96.54;100670.78;4885952;29;20128;-71
2022/09/23 01:36:11;;;;;;;6.30;4.93;;;;;;;8.46;96.37;100679.41;4884748;29;20060;-70
2022/09/23 01:38:59;;;;;;;6.43;5.53;;;;;;;8.37;96.24;100670.00;4888915;29;20060;-72
2022/09/23 01:42:00;;;;;;;7.93;5.22;;;;;;;8.49;96.12;100689.88;4891900;29;20048;-69
2022/09/23 01:44:42;;;;;;;;;;;;;;;8.53;96.24;100691.47;4894872;29;20155;-70
2022/09/23 01:47:16;;;;;;;6.75;4.97;;;;;;;8.40;95.80;100674.31;4888685;29;20014;-70
2022/09/23 01:50:00;;;;;;;9.50;5.43;;;;;;;8.51;96.28;100681.88;4889166;29;20055;-70
2022/09/23 01:52:34;;;;;;;6.90;4.70;;;;;;;8.59;96.32;100679.84;4887760;29;20144;-70
2022/09/23 01:55:13;;;;;;;6.05;4.38;;;;;;;8.59;95.95;100683.34;4880254;29;20712;-70
2022/09/23 01:57:44;;;;;;;6.90;4.78;;;;;;;8.56;95.52;100686.09;4890991;29;20048;-70
2022/09/23 02:00:15;;;;;;;6.95;5.10;;;;;;;8.48;95.49;100672.31;4890161;29;20048;-69
2022/09/23 02:02:48;;;;;;;6.90;4.85;;;;;;;8.59;95.22;100680.72;4881375;29;20209;-69
2022/09/23 02:05:23;;;;;;;8.25;4.90;;;;;;;8.55;94.58;100679.09;4883172;29;20049;-71
2022/09/23 02:07:51;;;;;;;5.65;4.85;;;;;;;8.54;95.09;100681.78;4884165;29;20060;-71
2022/09/23 02:10:24;;;;;;;6.53;4.90;;;;;;;8.38;94.85;100662.94;4885350;29;20132;-70
2022/09/23 02:12:59;;;;;;;8.38;4.72;;;;;;;8.42;95.39;100673.38;4885782;29;20131;-69
2022/09/23 02:15:36;;;;;;;6.00;4.88;;;;;;;8.43;95.54;100674.22;4885742;29;20123;-70
2022/09/23 02:18:23;;;;;;;5.32;4.80;;;;;;;8.38;95.31;100665.59;4884820;29;20223;-68
2022/09/23 02:20:55;;;;;;;9.02;5.38;;;;;;;8.43;95.22;100668.94;4883851;29;20143;-69
2022/09/23 02:23:43;;;;;;;7.38;4.70;;;;;;;8.38;94.96;100670.88;4883468;29;20063;-71
2022/09/23 02:26:34;;;;;;;6.40;4.70;;;;;;;8.37;95.02;100664.72;4885406;29;20065;-71
2022/09/23 02:29:06;;;;;;;;;;;;;;;8.40;95.45;100669.06;4891278;29;20199;-70
2022/09/23 02:31:52;;;;;;;6.32;4.47;;;;;;;8.40;95.20;100669.91;4882644;29;20026;-69
2022/09/23 02:34:41;;;;;;;6.22;4.22;;;;;;;8.36;95.19;100660.38;4891527;29;20566;-69
2022/09/23 02:38:02;;;;;;;5.10;4.47;;;;;;;8.47;95.27;100667.06;4882310;29;20493;-71
2022/09/23 02:40:31;;;;;;;7.88;4.82;;;;;;;8.45;94.88;100667.13;4833553;29;20125;-70
2022/09/23 02:43:32;;;;;;;6.38;4.35;;;;;;;8.39;94.90;100667.31;4876372;29;20503;-70
2022/09/23 02:45:59;;;;;;;;;;;;;;;8.38;94.74;100668.22;4891638;29;20171;-71
2022/09/23 02:48:33;;;;;;;4.78;4.20;;;;;;;8.43;94.95;100668.94;4886224;29;20355;-71
2022/09/23 02:51:02;;;;;;;7.05;3.95;;;;;;;8.40;94.15;100658.50;4884332;29;20722;-73
2022/09/23 02:53:32;;;;;;;5.65;4.28;;;;;;;8.27;94.17;100634.28;4893658;29;20530;-72
2022/09/23 02:56:00;;;;;;;6.18;4.43;;;;;;;8.41;94.01;100655.81;4887827;29;20045;-72
2022/09/23 02:58:28;;;;;;;7.88;4.95;;;;;;;8.37;94.09;100658.59;4885609;29;20360;-71
2022/09/23 03:01:20;;;;;;;6.35;4.45;;;;;;;8.34;94.02;100653.44;4885369;29;20432;-72
2022/09/23 03:04:09;;;;;;;6.03;4.53;;;;;;;8.31;94.02;100650.88;4889735;29;20056;-72
2022/09/23 03:07:07;;;;;;;5.30;4.55;;;;;;;8.26;94.76;100645.72;4877493;29;20060;-71
2022/09/23 03:09:38;;;;;;;5.20;4.53;;;;;;;8.20;94.63;100637.16;4881997;29;20413;-74
2022/09/23 03:12:14;;;;;;;;;;;;;;;8.23;94.59;100643.19;4886123;29;20057;-72
2022/09/23 03:14:55;;;;;;;7.68;4.95;;;;;;;8.19;95.19;100643.34;4888703;29;19934;-70
2022/09/23 03:17:46;;;;;;;8.00;5.35;;;;;;;8.08;95.90;100639.28;4888920;29;20157;-71
2022/09/23 03:20:28;;;;;;;8.55;5.32;;;;;;;7.88;96.62;100615.34;4892984;29;20127;-71
2022/09/23 03:23:00;;;;;;;6.80;5.22;;;;;;;8.00;96.81;100632.56;4890341;29;20060;-71
2022/09/23 03:25:30;;;;;;;7.18;5.05;;;;;;;8.00;96.96;100633.41;4891611;29;20071;-71
2022/09/23 03:27:59;;;;;;;6.53;5.00;;;;;;;8.05;97.34;100625.34;4892375;29;20131;-70
2022/09/23 03:30:27;;;;;;;8.65;5.28;;;;;;;8.08;97.16;100635.78;4889291;29;20128;-70
2022/09/23 03:32:59;;;;;;;10.52;6.13;;;;;;;8.01;96.75;100640.41;4886390;29;20053;-69
2022/09/23 03:35:28;;;;;;;6.47;5.07;;;;;;;7.98;97.53;100637.88;4881737;29;20055;-70
2022/09/23 03:38:06;;;;;;;5.78;5.13;;;;;;;8.00;97.44;100628.16;4889969;29;20487;-70
2022/09/23 03:40:40;;;;;;;7.43;5.68;;;;;;;7.96;97.03;100618.59;4882282;29;20067;-70
2022/09/23 03:43:08;;;;;;;6.45;4.70;;;;;;;8.02;96.85;100631.59;4889655;29;20060;-71
2022/09/23 03:45:35;;;;;;;8.23;5.30;;;;;;;8.04;96.54;100624.47;4892966;29;20063;-73
2022/09/23 03:48:01;;;;;;;8.05;5.38;;;;;;;8.04;96.23;100632.38;4892786;29;20049;-72
2022/09/23 03:50:29;;;;;;;6.70;5.88;;;;;;;7.97;96.56;100622.09;4887472;29;20085;-72
2022/09/23 03:52:55;;;;;;;7.82;5.47;;;;;;;7.72;97.18;100601.78;4883110;29;20076;-73
2022/09/23 03:55:22;;;;;;;9.38;5.50;;;;;;;7.90;97.82;100621.44;4891114;29;20052;-73
2022/09/23 03:57:48;;;;;;;7.18;5.35;;;;;;;7.84;97.72;100623.41;4891936;29;20489;-71
2022/09/23 04:00:15;;;;;;;8.18;5.22;;;;;;;7.81;98.23;100621.72;4891913;29;20132;-70
2022/09/23 04:02:42;;;;;;;6.80;5.40;;;;;;;7.69;97.47;100599.28;4892108;29;20171;-70
2022/09/23 04:05:10;;;;;;;5.82;5.22;;;;;;;7.75;97.48;100614.88;4883637;29;20443;-70
2022/09/23 04:07:36;;;;;;;6.95;6.05;;;;;;;7.69;98.24;100612.44;4889173;29;20505;-70
2022/09/23 04:10:04;;;;;;;8.43;6.28;;;;;;;7.57;98.53;100604.03;4889665;29;20522;-72
2022/09/23 04:12:31;;;;;;;7.90;5.90;;;;;;;7.54;99.10;100614.69;4889033;29;20582;-73
2022/09/23 04:14:58;;;;;;;6.72;6.13;;;;;;;7.46;99.39;100603.53;4883690;29;20143;-70
2022/09/23 04:17:25;;;;;;;8.50;6.30;;;;;;;7.49;99.79;100608.69;4885094;29;20478;-70
2022/09/23 04:19:51;;;;;;;7.43;6.00;;;;;;;7.50;100.00;100613.94;4891309;29;20056;-69
2022/09/23 04:22:18;;;;;;;7.07;5.53;;;;;;;7.50;100.00;100615.69;4886926;29;20080;-71
2022/09/23 04:24:45;;;;;;;6.50;5.90;;;;;;;7.50;100.00;100618.34;4887285;29;20053;-69
2022/09/23 04:27:11;;;;;;;8.40;5.80;;;;;;;7.47;100.00;100608.75;4894233;29;20487;-70
2022/09/23 04:29:38;;;;;;;7.68;6.15;;;;;;;7.50;100.00;100605.16;4889133;29;20072;-73
2022/09/23 04:32:04;;;;;;;7.03;6.10;;;;;;;7.48;100.00;100607.84;4881088;29;20491;-70
2022/09/23 04:34:31;;;;;;;8.88;5.97;;;;;;;7.47;100.00;100599.97;4888540;29;20053;-69
2022/09/23 04:36:57;;;;;;;7.43;5.80;;;;;;;7.50;100.00;100611.28;4881319;29;20068;-72
2022/09/23 04:39:24;;;;;;;7.50;6.03;;;;;;;7.56;100.00;100618.13;4890930;29;20067;-71
2022/09/23 04:41:51;;;;;;;7.05;5.75;;;;;;;7.51;100.00;100604.25;4885618;29;20084;-71
2022/09/23 04:44:18;;;;;;;9.57;6.20;;;;;;;7.63;100.00;100614.41;4883421;29;20051;-70
2022/09/23 04:46:48;;;;;;;7.00;6.05;;;;;;;7.64;100.00;100617.00;4894312;29;20053;-72
2022/09/23 04:49:15;;;;;;;9.77;5.82;;;;;;;7.65;99.83;100615.22;4892415;29;20416;-69
2022/09/23 04:51:42;;;;;;;10.98;5.85;;;;;;;7.47;99.42;100585.03;4889610;29;20080;-69
2022/09/23 04:54:11;;;;;;;7.97;5.97;;;;;;;7.65;99.33;100605.53;4887342;29;20496;-76
2022/09/23 04:56:38;;;;;;;7.38;5.75;;;;;;;7.66;99.21;100602.00;4888271;29;20077;-69
2022/09/23 04:59:06;;;;;;;6.28;5.68;;;;;;;7.70;98.81;100600.13;4891100;29;20061;-74
2022/09/23 05:01:33;;;;;;;7.53;5.85;;;;;;;7.64;98.27;100595.03;4886968;29;20065;-69
2022/09/23 05:04:04;;;;;;;6.57;4.93;;;;;;;7.72;98.76;100600.91;4888096;29;20063;-70
2022/09/23 05:06:35;;;;;;;6.97;5.35;;;;;;;7.80;98.81;100605.97;4880274;29;20065;-70
2022/09/23 05:09:05;;;;;;;6.95;5.65;;;;;;;7.84;98.12;100611.09;4891735;29;20471;-70
2022/09/23 05:11:33;;;;;;;6.85;5.25;;;;;;;7.89;98.06;100605.66;4882340;29;20073;-70
2022/09/23 05:13:59;;;;;;;8.02;5.00;;;;;;;7.91;97.41;100602.06;4891114;29;20128;-67
2022/09/23 05:16:26;;;;;;;6.90;5.05;;;;;;;7.90;96.86;100602.97;4884076;29;20471;-69
2022/09/23 05:18:53;;;;;;;7.28;5.00;;;;;;;7.90;96.83;100597.69;4885760;29;20425;-72
2022/09/23 05:21:26;;;;;;;6.15;5.30;;;;;;;7.94;96.95;100604.59;4891099;29;20587;-70
2022/09/23 05:23:55;;;;;;;8.02;5.18;;;;;;;7.95;96.19;100608.97;4882021;29;20064;-72
2022/09/23 05:26:26;;;;;;;6.97;4.93;;;;;;;7.94;95.91;100615.16;4889239;29;20779;-72
2022/09/23 05:28:53;;;;;;;7.57;5.22;;;;;;;7.95;96.19;100616.00;4891751;29;20466;-70
2022/09/23 05:31:22;;;;;;;5.95;5.10;;;;;;;8.00;96.17;100611.47;4883819;29;20040;-71
2022/09/23 05:33:56;;;;;;;5.82;5.20;;;;;;;8.04;95.92;100610.41;4895190;29;20440;-71
2022/09/23 05:36:24;;;;;;;6.07;5.20;;;;;;;8.08;96.21;100618.19;4882810;29;20087;-71
2022/09/23 05:38:51;;;;;;;6.30;5.18;;;;;;;8.10;95.74;100616.38;4892016;29;20504;-70
2022/09/23 05:41:21;;;;;;;7.05;5.30;;;;;;;8.07;95.55;100611.19;4892908;29;20052;-72
2022/09/23 05:43:50;;;;;;;8.15;5.75;;;;;;;8.10;95.25;100608.47;4888134;29;20053;-75
2022/09/23 05:46:20;;;;;;;9.13;5.15;;;;;;;8.18;94.87;100615.25;4886606;29;20575;-71
2022/09/23 05:48:46;;;;;;;6.85;5.97;;;;;;;8.19;94.83;100615.19;4888568;29;20052;-74
2022/09/23 05:51:24;;;;;;;10.40;5.60;;;;;;;8.31;94.40;100621.84;4885391;29;20117;-71
2022/09/23 05:53:57;;;;;;;9.50;5.93;;;;;;;8.32;93.90;100610.41;4883268;29;20060;-73
2022/09/23 05:56:26;;;;;;;6.25;5.32;;;;;;;8.44;93.53;100618.75;4890993;29;20052;-69
2022/09/23 05:58:54;;;;;;;9.30;5.75;;;;;;;8.57;93.10;100624.47;4886568;29;20057;-73
2022/09/23 06:01:26;;;;;;;20.45;12.50;;;;;;;8.58;92.29;100604.22;4889346;29;20049;-72
2022/09/23 06:03:55;;;;;;;10.98;5.63;;;;;;;8.67;91.54;100611.78;4888165;29;20135;-72
2022/09/23 06:06:28;;;;;;;6.78;5.18;;;;;;;8.72;90.96;100625.69;4888648;29;20088;-70
2022/09/23 06:08:55;;;;;;;10.35;5.22;;;;;;;8.72;91.18;100623.94;4893793;29;20048;-70
2022/09/23 06:11:22;;;;;;;6.95;5.05;;;;;;;8.56;90.84;100596.34;4887795;29;20460;-72
2022/09/23 06:13:54;;;;;;;7.75;5.50;;;;;;;8.74;91.15;100622.09;4891053;29;20057;-73
2022/09/23 06:16:20;;;;;;;7.05;5.22;;;;;;;8.83;91.10;100618.25;4879700;29;20074;-74
2022/09/23 06:18:47;;;;;;;6.35;5.43;;;;;;;8.88;90.70;100618.09;4890308;29;20080;-71
2022/09/23 06:21:16;;;;;;;6.43;5.72;;;;;;;8.97;90.23;100618.59;4889039;29;20063;-70
2022/09/23 06:23:44;;;;;;;7.20;5.47;;;;;;;9.03;89.75;100614.88;4886844;29;20136;-71
2022/09/23 06:26:13;;;;;;;7.72;5.40;;;;;;;9.03;89.14;100610.47;4890390;29;20074;-70
2022/09/23 06:28:41;;;;;;;8.60;5.15;;;;;;;9.06;89.01;100609.50;4882045;29;20578;-73
2022/09/23 06:31:14;;;;;;;6.70;5.18;;;;;;;9.17;88.71;100619.66;4877447;29;20109;-71
2022/09/23 06:33:44;;;;;;;6.53;4.78;;;;;;;9.28;88.62;100614.84;4891866;29;20083;-72
2022/09/23 06:36:13;;;;;;;6.10;5.07;;;;;;;9.36;87.93;100607.47;4876954;29;20139;-73
2022/09/23 06:38:49;;;;;;;6.43;5.30;;;;;;;9.41;87.29;100611.66;4887427;29;20534;-71
2022/09/23 06:41:16;;;;;;;11.93;5.07;;;;;;;9.42;87.07;100602.81;4881774;29;20112;-72
2022/09/23 06:43:43;;;;;;;8.95;5.53;;;;;;;9.45;86.86;100597.38;4886193;29;20072;-71
2022/09/23 06:46:14;;;;;;;5.57;5.00;;;;;;;9.49;86.89;100601.63;4864504;29;20482;-72
2022/09/23 06:48:42;;;;;;;8.48;5.22;;;;;;;9.43;86.83;100583.41;4879310;29;20059;-73
2022/09/23 06:51:17;;;;;;;;;;;;;;;9.69;86.96;100603.50;4886519;29;20079;-72
2022/09/23 06:53:45;;;;;;;9.05;5.68;;;;;;;9.79;86.38;100604.84;4884447;29;19928;-73
2022/09/23 06:56:13;;;;;;;8.98;5.53;;;;;;;9.85;86.71;100599.31;4885204;29;20097;-73
2022/09/23 06:58:39;;;;;;;8.43;5.30;;;;;;;9.93;86.19;100596.34;4883582;29;20057;-70
2022/09/23 07:01:08;;;;;;;7.93;5.20;;;;;;;10.01;85.41;100598.69;4887740;29;20483;-72
2022/09/23 07:03:35;;;;;;;9.35;5.68;;;;;;;10.11;85.19;100603.53;4890197;29;20080;-69
2022/09/23 07:06:03;;;;;;;10.30;5.53;;;;;;;10.23;84.87;100599.53;4895545;29;20056;-72
2022/09/23 07:08:35;;;;;;;6.85;5.35;;;;;;;10.30;84.31;100601.00;4890052;29;20057;-71
2022/09/23 07:11:04;;;;;;;10.80;5.38;;;;;;;10.34;83.06;100607.91;4891485;29;20158;-71
2022/09/23 07:13:32;;;;;;;8.10;5.00;;;;;;;10.44;83.55;100606.56;4886450;29;20152;-71
2022/09/23 07:16:00;;;;;;;9.10;4.90;;;;;;;10.44;82.75;100582.75;4889200;29;20048;-71
2022/09/23 07:18:32;;;;;;;6.50;4.93;;;;;;;10.71;82.22;100604.50;4885621;29;20083;-72
2022/09/23 07:21:14;;;;;;;7.38;5.30;;;;;;;10.93;80.78;100600.91;4891104;29;20079;-70
2022/09/23 07:23:48;;;;;;;6.70;4.90;;;;;;;11.04;79.84;100607.44;4887627;29;20488;-73
2022/09/23 07:26:17;;;;;;;8.55;5.35;;;;;;;11.12;79.22;100602.66;4892000;29;20048;-74
2022/09/23 07:28:44;;;;;;;5.32;4.80;;;;;;;11.24;78.31;100603.88;4887602;29;20061;-71
2022/09/23 07:31:13;;;;;;;7.82;5.05;;;;;;;11.36;76.50;100608.59;4883449;29;20104;-70
2022/09/23 07:33:43;;;;;;;9.10;5.20;;;;;;;11.45;76.44;100605.53;4886046;29;20570;-70
2022/09/23 07:36:17;;;;;;;9.45;5.13;;;;;;;11.35;76.90;100580.34;4884662;29;20067;-72
2022/09/23 07:38:45;;;;;;;6.47;5.00;;;;;;;11.64;76.53;100592.25;4883576;29;20053;-70
2022/09/23 07:41:14;;;;;;;8.30;5.20;;;;;;;11.79;74.23;100585.38;4884009;29;20045;-69
2022/09/23 07:43:42;;;;;;;7.18;5.07;;;;;;;11.67;73.47;100568.22;4885156;29;20057;-72
2022/09/23 07:46:14;;;;;;;6.70;5.18;;;;;;;11.68;73.08;100563.75;4893724;29;20514;-71
2022/09/23 07:48:41;;;;;;;7.18;4.68;;;;;;;11.86;74.42;100600.03;4893891;29;20451;-73
2022/09/23 07:51:10;;;;;;;8.05;6.93;;;;;;;11.90;74.14;100599.81;4892601;29;20056;-71
2022/09/23 07:53:38;;;;;;;8.57;5.30;;;;;;;11.92;74.00;100600.63;4893738;29;20164;-72
2022/09/23 07:56:05;;;;;;;8.68;4.82;;;;;;;11.91;74.77;100609.50;4889718;29;20076;-70
2022/09/23 07:58:33;;;;;;;7.28;5.03;;;;;;;11.98;75.21;100596.78;4890492;29;20113;-70
2022/09/23 08:01:05;;;;;;;6.85;5.18;;;;;;;12.14;76.99;100607.50;4888965;29;20112;-70
2022/09/23 08:03:32;;;;;;;7.88;5.25;;;;;;;12.30;75.30;100597.81;4890379;29;20097;-71
2022/09/23 08:06:10;;;;;;;7.22;5.40;;;;;;;12.17;72.73;100584.31;4886298;29;20059;-73
2022/09/23 08:08:39;;;;;;;8.35;5.65;;;;;;;12.33;73.13;100602.13;4889423;29;20084;-74
2022/09/23 08:11:09;;;;;;;7.43;5.50;;;;;;;12.34;72.83;100604.69;4883958;29;20064;-69
2022/09/23 08:13:36;;;;;;;10.27;5.70;;;;;;;12.54;70.43;100609.00;4888621;29;20125;-75
2022/09/23 08:16:03;;;;;;;5.75;5.10;;;;;;;12.73;70.26;100607.13;4885678;29;20048;-76
2022/09/23 08:18:29;;;;;;;6.93;4.82;;;;;;;12.92;70.24;100596.34;4887947;29;20057;-69
2022/09/23 08:20:56;;;;;;;7.25;4.88;;;;;;;13.20;67.21;100601.09;4892781;29;20066;-72
2022/09/23 08:23:23;;;;;;;6.25;5.00;;;;;;;13.43;65.34;100606.00;4890972;29;20120;-71
2022/09/23 08:25:58;;;;;;;7.68;5.30;;;;;;;13.54;64.61;100578.78;4891198;29;20662;-70
2022/09/23 08:28:26;;;;;;;9.65;4.93;;;;;;;13.71;63.46;100573.38;4890707;29;20053;-71
2022/09/23 08:30:53;;;;;;;9.50;5.10;;;;;;;13.77;61.67;100581.00;4887794;29;20063;-70
2022/09/23 08:33:19;;;;;;;8.52;5.30;;;;;;;13.85;61.54;100601.88;4889140;29;20131;-74
2022/09/23 08:35:50;;;;;;;7.00;5.57;;;;;;;13.67;61.52;100601.97;4883941;29;20131;-71
2022/09/23 08:38:17;;;;;;;5.97;5.10;;;;;;;13.56;63.04;100601.69;4891528;29;20068;-71
2022/09/23 08:40:48;;;;;;;6.63;5.20;;;;;;;13.39;63.85;100593.78;4886918;29;20163;-70
2022/09/23 08:43:23;;;;;;;8.20;5.18;;;;;;;13.48;62.92;100597.75;4893297;29;20100;-71
2022/09/23 08:45:52;;;;;;;10.80;6.35;;;;;;;13.35;66.75;100602.91;4889298;29;20091;-73
2022/09/23 08:48:31;;;;;;;9.00;5.70;;;;;;;12.96;68.29;100601.44;4879419;29;20041;-71
2022/09/23 08:51:03;;;;;;;6.90;5.88;;;;;;;12.73;69.50;100593.81;4887644;29;20056;-73
2022/09/23 08:53:35;;;;;;;10.20;6.85;;;;;;;12.75;70.73;100602.56;4883360;29;20051;-72
2022/09/23 08:56:09;;;;;;;9.73;6.28;;;;;;;12.67;70.20;100602.09;4892841;29;20218;-70
2022/09/23 08:58:35;;;;;;;7.93;6.28;;;;;;;12.63;69.95;100608.50;4887387;29;20481;-69
2022/09/23 09:01:09;;;;;;;9.27;7.15;;;;;;;12.77;68.85;100597.16;4887294;29;20060;-71
2022/09/23 09:03:43;;;;;;;8.40;6.20;;;;;;;12.98;68.29;100588.91;4890976;29;20087;-70
2022/09/23 09:06:39;;;;;;;7.68;6.15;;;;;;;13.31;69.12;100594.22;4880410;29;20595;-69
2022/09/23 09:09:31;;;;;;;11.57;6.88;;;;;;;13.54;66.10;100592.06;4890437;29;20445;-71
2022/09/23 09:12:05;;;;;;;11.40;6.35;;;;;;;13.50;65.32;100583.44;4887053;29;20052;-71
2022/09/23 09:14:41;;;;;;;6.63;5.85;;;;;;;13.49;66.05;100560.44;4892361;29;20048;-73
2022/09/23 09:17:16;;;;;;;8.48;6.07;;;;;;;13.80;65.51;100574.66;4888092;29;20076;-71
2022/09/23 09:20:03;;;;;;;8.93;6.50;;;;;;;14.14;63.89;100570.91;4889705;29;20151;-71
2022/09/23 09:22:47;;;;;;;9.25;6.20;;;;;;;14.40;61.93;100578.22;4880914;29;20476;-73
2022/09/23 09:25:21;;;;;;;9.55;5.63;;;;;;;14.52;61.11;100581.94;4888795;29;20227;-72
2022/09/23 09:27:48;;;;;;;6.90;5.50;;;;;;;14.66;59.67;100584.63;4891820;29;20467;-72
2022/09/23 09:30:16;;;;;;;7.43;5.90;;;;;;;14.79;57.86;100569.63;4884462;29;20438;-71
2022/09/23 09:32:49;;;;;;;6.15;5.22;;;;;;;14.70;56.40;100580.84;4889118;29;20056;-71
2022/09/23 09:35:37;;;;;;;8.60;4.80;;;;;;;14.39;57.96;100572.00;4886502;29;20144;-70
2022/09/23 09:38:04;;;;;;;6.18;4.38;;;;;;;14.49;58.91;100568.81;4889287;29;20068;-70
2022/09/23 09:40:33;;;;;;;5.28;4.32;;;;;;;14.73;58.46;100565.53;4890554;29;20491;-70
2022/09/23 09:43:04;;;;;;;6.38;4.13;;;;;;;14.90;57.12;100552.97;4891803;29;20515;-70
2022/09/23 09:45:45;;;;;;;;;;;;;;;15.15;55.44;100554.94;4887840;29;20062;-71
2022/09/23 09:48:22;;;;;;;4.90;4.05;;;;;;;15.23;55.73;100552.66;4884718;29;19979;-72
2022/09/23 09:50:52;;;;;;;6.18;4.55;;;;;;;14.90;55.62;100550.28;4884658;29;20056;-67
2022/09/23 09:53:22;;;;;;;5.55;3.67;;;;;;;14.80;56.83;100549.13;4885622;29;20083;-69
2022/09/23 09:55:58;;;;;;;5.53;3.97;;;;;;;14.64;56.32;100533.22;4888683;29;20088;-71
2022/09/23 09:59:00;;;;;;;4.63;3.97;;;;;;;14.88;58.11;100538.88;4888385;29;20517;-71
2022/09/23 10:01:32;;;;;;;9.18;4.00;;;;;;;15.05;57.33;100514.66;4865192;29;20571;-70
2022/09/23 10:04:34;;;;;;;3.88;3.25;;;;;;;15.53;56.33;100529.31;4889768;29;20052;-71
2022/09/23 10:07:15;;;;;;;6.30;3.80;;;;;;;15.76;54.43;100534.03;4867913;29;20055;-71
2022/09/23 10:09:48;;;;;;;;;;;;;;;15.95;54.16;100531.00;4883826;29;20153;-69
2022/09/23 10:12:25;;;;;;;4.63;3.45;;;;;;;16.13;54.08;100536.91;4891015;29;20144;-72
2022/09/23 10:14:56;;;;;;;4.35;3.85;;;;;;;15.77;53.23;100526.88;4886742;29;20063;-72
2022/09/23 10:17:28;;;;;;;;;;;;;;;15.57;54.93;100533.53;4885496;29;20467;-70
2022/09/23 10:20:08;;;;;;;6.68;3.78;;;;;;;15.61;54.21;100505.66;4889406;29;19959;-71
2022/09/23 10:22:37;;;;;;;;;;;;;;;15.98;53.68;100529.94;4880771;29;20057;-70
2022/09/23 10:25:25;;;;;;;5.10;3.53;;;;;;;16.22;53.28;100532.75;4884823;29;19924;-70
2022/09/23 10:27:52;;;;;;;5.57;3.10;;;;;;;16.33;53.29;100499.00;4891176;29;20056;-69
2022/09/23 10:30:24;;;;;;;10.45;3.65;;;;;;;16.52;51.02;100508.44;4888002;29;20500;-72
2022/09/23 10:32:56;;;;;;;4.13;3.35;;;;;;;16.68;51.04;100514.44;4880704;29;20133;-70
2022/09/23 10:35:24;;;;;;;5.07;3.50;;;;;;;16.80;50.81;100518.91;4882429;29;20048;-71
2022/09/23 10:37:55;;;;;;;5.13;3.50;;;;;;;16.74;51.32;100511.31;4884401;29;20218;-70
2022/09/23 10:46:37;;;;;;;3.90;3.50;;;;;;;16.82;50.16;100496.47;4888459;29;20132;-70
2022/09/23 10:49:13;;;;;;;4.65;3.22;;;;;;;16.71;50.46;100503.50;4887990;29;20052;-72
2022/09/23 10:51:54;;;;;;;7.07;3.75;;;;;;;16.74;51.60;100508.66;4885392;29;20399;-72
2022/09/23 10:54:44;;;;;;;6.97;3.55;;;;;;;16.84;50.70;100491.00;4883761;29;20073;-71
2022/09/23 10:57:39;;;;;;;3.45;2.80;;;;;;;16.88;51.01;100494.28;4890147;29;20091;-71
2022/09/23 11:00:17;;;;;;;4.72;2.80;;;;;;;17.15;49.67;100492.31;4887033;29;20075;-68
2022/09/23 11:02:51;;;;;;;3.35;2.38;;;;;;;17.33;48.53;100474.88;4881800;29;20128;-69
2022/09/23 11:05:36;;;;;;;5.63;2.95;;;;;;;17.60;48.59;100484.53;4891900;29;20088;-74
2022/09/23 11:08:09;;;;;;;6.00;2.83;;;;;;;17.83;48.08;100481.88;4886515;29;20068;-69
2022/09/23 11:10:54;;;;;;;3.88;2.20;;;;;;;18.05;47.16;100477.56;4884833;29;20143;-71
2022/09/23 11:13:24;;;;;;;5.35;2.58;;;;;;;18.28;47.19;100467.72;4888254;29;20076;-72
2022/09/23 11:16:17;;;;;;;5.05;2.60;;;;;;;18.41;46.36;100469.34;4884726;29;20471;-69
2022/09/23 11:18:43;;;;;;;2.78;2.17;;;;;;;18.50;45.78;100468.63;4882486;29;20149;-74
2022/09/23 11:21:51;;;;;;;3.75;2.30;;;;;;;18.52;45.43;100458.63;4885463;29;20411;-72
2022/09/23 11:24:59;;;;;;;6.13;2.90;;;;;;;18.50;46.05;100468.63;4887167;29;20045;-71
2022/09/23 11:27:28;;;;;;;4.47;2.55;;;;;;;18.56;46.00;100456.56;4860217;29;20587;-72
2022/09/23 11:30:11;;;;;;;5.10;2.08;;;;;;;18.67;45.45;100453.91;4888535;29;20151;-72
2022/09/23 11:32:58;;;;;;;3.00;2.35;;;;;;;18.78;45.79;100458.41;4884122;29;20646;-73
2022/09/23 11:35:30;;;;;;;2.72;2.20;;;;;;;18.75;45.25;100447.91;4882197;29;20049;-73
2022/09/23 11:38:14;;;;;;;5.18;2.38;;;;;;;18.44;45.84;100447.63;4890740;29;20663;-73
2022/09/23 11:40:45;;;;;;;4.82;2.10;;;;;;;18.16;46.17;100426.66;4893251;29;20048;-74
2022/09/23 11:43:22;;;;;;;3.17;2.42;;;;;;;18.16;45.67;100421.28;4892970;29;20045;-71
2022/09/23 11:45:59;;;;;;;6.45;2.30;;;;;;;18.42;46.03;100438.88;4876425;29;20064;-73
2022/09/23 11:48:29;;;;;;;8.50;2.58;;;;;;;18.64;45.42;100442.56;4885194;29;20045;-74
2022/09/23 11:51:16;;;;;;;4.78;2.30;;;;;;;18.44;45.58;100419.97;4896514;29;20321;-74
2022/09/23 11:54:02;;;;;;;2.97;2.45;;;;;;;18.42;46.19;100436.19;4891155;29;20072;-75
2022/09/23 11:56:43;;;;;;;4.03;2.47;;;;;;;18.42;45.84;100429.97;4895456;29;20107;-73
2022/09/23 11:59:54;;;;;;;3.60;2.00;;;;;;;18.64;45.88;100432.69;4892389;29;20049;-72
2022/09/23 12:02:38;;;;;;;3.13;2.63;;;;;;;18.51;45.47;100427.44;4845361;29;20074;-71
2022/09/23 12:05:13;;;;;;;2.80;2.35;;;;;;;18.57;45.70;100420.72;4896102;29;20056;-76
2022/09/23 12:07:58;;;;;;;3.92;2.70;;;;;;;18.63;45.93;100424.75;4887747;29;20406;-72